sensor_id;sensor_type;location;lat;lon;timestamp;temperature;humidity
27306;DHT22;14792;50.886;6.468;2023-08-07T00:00:30;12.80;99.90
27306;DHT22;14792;50.886;6.468;2023-08-07T00:03:32;12.70;99.90
27306;DHT22;14792;50.886;6.468;2023-08-07T00:06:33;12.80;99.90
27306;DHT22;14792;50.886;6.468;2023-08-07T00:09:35;12.80;99.90
27306;DHT22;14792;50.886;6.468;2023-08-07T00:12:37;12.80;99.90
27306;DHT22;14792;50.886;6.468;2023-08-07T00:15:38;12.80;99.90
27306;DHT22;14792;50.886;6.468;2023-08-07T00:18:40;12.70;99.90
27306;DHT22;14792;50.886;6.468;2023-08-07T00:21:41;12.70;99.90
27306;DHT22;14792;50.886;6.468;2023-08-07T00:24:43;12.80;99.90
27306;DHT22;14792;50.886;6.468;2023-08-07T00:27:45;12.80;99.90
27306;DHT22;14792;50.886;6.468;2023-08-07T00:30:46;12.80;99.90
27306;DHT22;14792;50.886;6.468;2023-08-07T00:33:48;12.80;99.90
27306;DHT22;14792;50.886;6.468;2023-08-07T00:36:49;12.80;99.90
27306;DHT22;14792;50.886;6.468;2023-08-07T00:39:51;12.70;99.90
27306;DHT22;14792;50.886;6.468;2023-08-07T00:42:52;12.70;99.90
27306;DHT22;14792;50.886;6.468;2023-08-07T00:45:54;12.70;99.90
27306;DHT22;14792;50.886;6.468;2023-08-07T00:48:56;12.80;99.90
27306;DHT22;14792;50.886;6.468;2023-08-07T00:51:57;12.80;99.90
27306;DHT22;14792;50.886;6.468;2023-08-07T00:54:59;12.80;99.90
27306;DHT22;14792;50.886;6.468;2023-08-07T00:58:00;12.80;99.90
27306;DHT22;14792;50.886;6.468;2023-08-07T01:01:02;12.80;99.90
27306;DHT22;14792;50.886;6.468;2023-08-07T01:04:04;12.70;99.90
27306;DHT22;14792;50.886;6.468;2023-08-07T01:07:05;12.70;99.90
27306;DHT22;14792;50.886;6.468;2023-08-07T01:10:07;12.70;99.90
27306;DHT22;14792;50.886;6.468;2023-08-07T01:13:24;12.70;99.90
27306;DHT22;14792;50.886;6.468;2023-08-07T01:16:21;12.70;99.90
27306;DHT22;14792;50.886;6.468;2023-08-07T01:19:29;12.70;99.90
27306;DHT22;14792;50.886;6.468;2023-08-07T01:22:30;12.70;99.90
27306;DHT22;14792;50.886;6.468;2023-08-07T01:25:32;12.70;99.90
27306;DHT22;14792;50.886;6.468;2023-08-07T01:28:36;12.70;99.90
27306;DHT22;14792;50.886;6.468;2023-08-07T01:31:36;12.70;99.90
27306;DHT22;14792;50.886;6.468;2023-08-07T01:34:38;12.80;99.90
27306;DHT22;14792;50.886;6.468;2023-08-07T01:37:39;12.80;99.90
27306;DHT22;14792;50.886;6.468;2023-08-07T01:40:41;12.80;99.90
27306;DHT22;14792;50.886;6.468;2023-08-07T01:43:42;12.80;99.90
27306;DHT22;14792;50.886;6.468;2023-08-07T01:46:44;12.80;99.90
27306;DHT22;14792;50.886;6.468;2023-08-07T01:49:45;12.80;99.90
27306;DHT22;14792;50.886;6.468;2023-08-07T01:52:47;12.80;99.90
27306;DHT22;14792;50.886;6.468;2023-08-07T01:55:49;12.80;99.90
27306;DHT22;14792;50.886;6.468;2023-08-07T01:58:50;12.80;99.90
27306;DHT22;14792;50.886;6.468;2023-08-07T02:01:52;12.80;99.90
27306;DHT22;14792;50.886;6.468;2023-08-07T02:04:53;12.80;99.90
27306;DHT22;14792;50.886;6.468;2023-08-07T02:07:55;12.80;99.90
27306;DHT22;14792;50.886;6.468;2023-08-07T02:10:57;12.80;99.90
27306;DHT22;14792;50.886;6.468;2023-08-07T02:13:58;12.80;99.90
27306;DHT22;14792;50.886;6.468;2023-08-07T02:17:00;12.80;99.90
27306;DHT22;14792;50.886;6.468;2023-08-07T02:20:01;12.80;99.90
27306;DHT22;14792;50.886;6.468;2023-08-07T02:23:03;12.80;99.90
27306;DHT22;14792;50.886;6.468;2023-08-07T02:26:04;12.80;99.90
27306;DHT22;14792;50.886;6.468;2023-08-07T02:29:06;12.80;99.90
27306;DHT22;14792;50.886;6.468;2023-08-07T02:32:08;12.80;99.90
27306;DHT22;14792;50.886;6.468;2023-08-07T02:35:09;12.80;99.90
27306;DHT22;14792;50.886;6.468;2023-08-07T02:38:11;12.80;99.90
27306;DHT22;14792;50.886;6.468;2023-08-07T02:41:12;12.80;99.90
27306;DHT22;14792;50.886;6.468;2023-08-07T02:44:14;12.80;99.90
27306;DHT22;14792;50.886;6.468;2023-08-07T02:47:16;12.70;99.90
27306;DHT22;14792;50.886;6.468;2023-08-07T02:50:17;12.70;99.90
27306;DHT22;14792;50.886;6.468;2023-08-07T02:53:19;12.70;99.90
27306;DHT22;14792;50.886;6.468;2023-08-07T02:56:20;12.60;99.90
27306;DHT22;14792;50.886;6.468;2023-08-07T02:59:22;12.70;99.90
27306;DHT22;14792;50.886;6.468;2023-08-07T03:02:23;12.70;99.90
27306;DHT22;14792;50.886;6.468;2023-08-07T03:05:25;12.70;99.90
27306;DHT22;14792;50.886;6.468;2023-08-07T03:08:27;12.70;99.90
27306;DHT22;14792;50.886;6.468;2023-08-07T03:11:28;12.70;99.90
27306;DHT22;14792;50.886;6.468;2023-08-07T03:14:30;12.70;99.90
27306;DHT22;14792;50.886;6.468;2023-08-07T03:17:31;12.60;99.90
27306;DHT22;14792;50.886;6.468;2023-08-07T03:20:35;12.60;99.90
27306;DHT22;14792;50.886;6.468;2023-08-07T03:23:35;12.60;99.90
27306;DHT22;14792;50.886;6.468;2023-08-07T03:26:36;12.50;99.90
27306;DHT22;14792;50.886;6.468;2023-08-07T03:29:38;12.50;99.90
27306;DHT22;14792;50.886;6.468;2023-08-07T03:32:39;12.50;99.90
27306;DHT22;14792;50.886;6.468;2023-08-07T03:35:41;12.60;99.90
27306;DHT22;14792;50.886;6.468;2023-08-07T03:38:43;12.60;99.90
27306;DHT22;14792;50.886;6.468;2023-08-07T03:41:44;12.60;99.90
27306;DHT22;14792;50.886;6.468;2023-08-07T03:44:46;12.60;99.90
27306;DHT22;14792;50.886;6.468;2023-08-07T03:47:47;12.50;99.90
27306;DHT22;14792;50.886;6.468;2023-08-07T03:50:49;12.40;99.90
27306;DHT22;14792;50.886;6.468;2023-08-07T03:53:51;12.30;99.90
27306;DHT22;14792;50.886;6.468;2023-08-07T03:56:52;12.40;99.90
27306;DHT22;14792;50.886;6.468;2023-08-07T03:59:54;12.30;99.90
27306;DHT22;14792;50.886;6.468;2023-08-07T04:02:55;12.20;99.90
27306;DHT22;14792;50.886;6.468;2023-08-07T04:05:57;12.30;99.90
27306;DHT22;14792;50.886;6.468;2023-08-07T04:08:58;12.30;99.90
27306;DHT22;14792;50.886;6.468;2023-08-07T04:12:00;12.30;99.90
27306;DHT22;14792;50.886;6.468;2023-08-07T04:15:02;12.20;99.90
27306;DHT22;14792;50.886;6.468;2023-08-07T04:18:03;12.30;99.90
27306;DHT22;14792;50.886;6.468;2023-08-07T04:21:05;12.30;99.90
27306;DHT22;14792;50.886;6.468;2023-08-07T04:24:06;12.30;99.90
27306;DHT22;14792;50.886;6.468;2023-08-07T04:27:10;12.30;99.90
27306;DHT22;14792;50.886;6.468;2023-08-07T04:30:12;12.30;99.90
27306;DHT22;14792;50.886;6.468;2023-08-07T04:33:14;12.30;99.90
27306;DHT22;14792;50.886;6.468;2023-08-07T04:36:15;12.20;99.90
27306;DHT22;14792;50.886;6.468;2023-08-07T04:39:17;12.30;99.90
27306;DHT22;14792;50.886;6.468;2023-08-07T04:42:18;12.30;99.90
27306;DHT22;14792;50.886;6.468;2023-08-07T04:45:21;12.30;99.90
27306;DHT22;14792;50.886;6.468;2023-08-07T04:48:23;12.30;99.90
27306;DHT22;14792;50.886;6.468;2023-08-07T04:51:24;12.30;99.90
27306;DHT22;14792;50.886;6.468;2023-08-07T04:54:26;12.40;99.90
27306;DHT22;14792;50.886;6.468;2023-08-07T04:57:27;12.40;99.90
27306;DHT22;14792;50.886;6.468;2023-08-07T05:00:29;12.40;99.90
27306;DHT22;14792;50.886;6.468;2023-08-07T05:03:31;12.40;99.90
27306;DHT22;14792;50.886;6.468;2023-08-07T05:06:32;12.40;99.90
27306;DHT22;14792;50.886;6.468;2023-08-07T05:09:34;12.40;99.90
27306;DHT22;14792;50.886;6.468;2023-08-07T05:12:35;12.40;99.90
27306;DHT22;14792;50.886;6.468;2023-08-07T05:15:37;12.50;99.90
27306;DHT22;14792;50.886;6.468;2023-08-07T05:18:39;12.50;99.90
27306;DHT22;14792;50.886;6.468;2023-08-07T05:21:40;12.50;99.90
27306;DHT22;14792;50.886;6.468;2023-08-07T05:24:42;12.50;99.90
27306;DHT22;14792;50.886;6.468;2023-08-07T05:27:44;12.60;99.90
27306;DHT22;14792;50.886;6.468;2023-08-07T05:30:45;12.60;99.90
27306;DHT22;14792;50.886;6.468;2023-08-07T05:33:47;12.60;99.90
27306;DHT22;14792;50.886;6.468;2023-08-07T05:36:48;12.60;99.90
27306;DHT22;14792;50.886;6.468;2023-08-07T05:39:50;12.70;99.90
27306;DHT22;14792;50.886;6.468;2023-08-07T05:42:51;12.70;99.90
27306;DHT22;14792;50.886;6.468;2023-08-07T05:45:53;12.60;99.90
27306;DHT22;14792;50.886;6.468;2023-08-07T05:48:54;12.70;99.90
27306;DHT22;14792;50.886;6.468;2023-08-07T05:51:56;12.80;99.90
27306;DHT22;14792;50.886;6.468;2023-08-07T05:54:58;12.70;99.90
27306;DHT22;14792;50.886;6.468;2023-08-07T05:57:59;12.80;99.90
27306;DHT22;14792;50.886;6.468;2023-08-07T06:01:01;12.80;99.90
27306;DHT22;14792;50.886;6.468;2023-08-07T06:04:02;12.80;99.90
27306;DHT22;14792;50.886;6.468;2023-08-07T06:07:04;12.80;99.90
27306;DHT22;14792;50.886;6.468;2023-08-07T06:10:06;12.80;99.90
27306;DHT22;14792;50.886;6.468;2023-08-07T06:13:07;12.80;99.90
27306;DHT22;14792;50.886;6.468;2023-08-07T06:16:09;12.80;99.90
27306;DHT22;14792;50.886;6.468;2023-08-07T06:19:10;12.80;99.90
27306;DHT22;14792;50.886;6.468;2023-08-07T06:22:12;12.80;99.90
27306;DHT22;14792;50.886;6.468;2023-08-07T06:25:14;12.80;99.90
27306;DHT22;14792;50.886;6.468;2023-08-07T06:28:27;12.80;99.90
27306;DHT22;14792;50.886;6.468;2023-08-07T06:31:29;12.70;99.90
27306;DHT22;14792;50.886;6.468;2023-08-07T06:34:30;12.70;99.90
27306;DHT22;14792;50.886;6.468;2023-08-07T06:37:32;12.70;99.90
27306;DHT22;14792;50.886;6.468;2023-08-07T06:40:37;12.70;99.90
27306;DHT22;14792;50.886;6.468;2023-08-07T06:43:35;12.80;99.90
27306;DHT22;14792;50.886;6.468;2023-08-07T06:46:37;12.70;99.90
27306;DHT22;14792;50.886;6.468;2023-08-07T06:49:38;12.70;99.90
27306;DHT22;14792;50.886;6.468;2023-08-07T06:52:40;12.80;99.90
27306;DHT22;14792;50.886;6.468;2023-08-07T06:55:41;12.70;99.90
27306;DHT22;14792;50.886;6.468;2023-08-07T06:58:43;12.60;99.90
27306;DHT22;14792;50.886;6.468;2023-08-07T07:01:44;12.60;99.90
27306;DHT22;14792;50.886;6.468;2023-08-07T07:04:46;12.60;99.90
27306;DHT22;14792;50.886;6.468;2023-08-07T07:07:48;12.60;99.90
27306;DHT22;14792;50.886;6.468;2023-08-07T07:10:49;12.60;99.90
27306;DHT22;14792;50.886;6.468;2023-08-07T07:13:51;12.60;99.90
27306;DHT22;14792;50.886;6.468;2023-08-07T07:16:52;12.70;99.90
27306;DHT22;14792;50.886;6.468;2023-08-07T07:19:54;12.70;99.90
27306;DHT22;14792;50.886;6.468;2023-08-07T07:22:56;12.90;99.90
27306;DHT22;14792;50.886;6.468;2023-08-07T07:25:57;12.90;99.90
27306;DHT22;14792;50.886;6.468;2023-08-07T07:28:59;12.90;99.90
27306;DHT22;14792;50.886;6.468;2023-08-07T07:32:00;13.00;99.90
27306;DHT22;14792;50.886;6.468;2023-08-07T07:35:02;13.10;99.90
27306;DHT22;14792;50.886;6.468;2023-08-07T07:38:04;13.20;99.90
27306;DHT22;14792;50.886;6.468;2023-08-07T07:41:05;13.40;99.90
27306;DHT22;14792;50.886;6.468;2023-08-07T07:44:07;13.50;99.90
27306;DHT22;14792;50.886;6.468;2023-08-07T07:47:08;13.50;99.90
27306;DHT22;14792;50.886;6.468;2023-08-07T07:50:10;13.60;99.90
27306;DHT22;14792;50.886;6.468;2023-08-07T07:53:11;13.70;99.90
27306;DHT22;14792;50.886;6.468;2023-08-07T07:56:13;13.80;99.90
27306;DHT22;14792;50.886;6.468;2023-08-07T07:59:15;13.80;99.90
27306;DHT22;14792;50.886;6.468;2023-08-07T08:02:16;13.90;99.90
27306;DHT22;14792;50.886;6.468;2023-08-07T08:05:18;14.10;99.90
27306;DHT22;14792;50.886;6.468;2023-08-07T08:08:19;14.20;99.90
27306;DHT22;14792;50.886;6.468;2023-08-07T08:11:21;14.20;99.90
27306;DHT22;14792;50.886;6.468;2023-08-07T08:14:23;14.30;99.90
27306;DHT22;14792;50.886;6.468;2023-08-07T08:17:24;14.50;99.90
27306;DHT22;14792;50.886;6.468;2023-08-07T08:20:26;14.60;99.90
27306;DHT22;14792;50.886;6.468;2023-08-07T08:23:27;14.70;99.90
27306;DHT22;14792;50.886;6.468;2023-08-07T08:38:29;14.80;99.90
27306;DHT22;14792;50.886;6.468;2023-08-07T09:01:28;15.70;99.90
27306;DHT22;14792;50.886;6.468;2023-08-07T09:08:29;16.40;99.90
27306;DHT22;14792;50.886;6.468;2023-08-07T09:19:24;16.00;99.90
27306;DHT22;14792;50.886;6.468;2023-08-07T09:22:26;16.00;99.90
27306;DHT22;14792;50.886;6.468;2023-08-07T09:25:31;16.10;99.90
27306;DHT22;14792;50.886;6.468;2023-08-07T09:28:32;16.30;99.90
27306;DHT22;14792;50.886;6.468;2023-08-07T09:31:35;16.30;99.90
27306;DHT22;14792;50.886;6.468;2023-08-07T09:34:35;16.20;99.90
27306;DHT22;14792;50.886;6.468;2023-08-07T09:37:36;16.20;99.90
27306;DHT22;14792;50.886;6.468;2023-08-07T09:40:38;16.30;99.90
27306;DHT22;14792;50.886;6.468;2023-08-07T09:43:40;16.40;99.90
27306;DHT22;14792;50.886;6.468;2023-08-07T09:46:44;16.50;99.90
27306;DHT22;14792;50.886;6.468;2023-08-07T09:49:45;16.90;99.90
27306;DHT22;14792;50.886;6.468;2023-08-07T09:52:50;17.00;99.90
27306;DHT22;14792;50.886;6.468;2023-08-07T09:55:52;16.80;99.90
27306;DHT22;14792;50.886;6.468;2023-08-07T09:58:53;16.90;99.90
27306;DHT22;14792;50.886;6.468;2023-08-07T10:01:55;16.80;99.90
27306;DHT22;14792;50.886;6.468;2023-08-07T10:04:56;16.90;99.90
27306;DHT22;14792;50.886;6.468;2023-08-07T10:07:58;17.30;99.90
27306;DHT22;14792;50.886;6.468;2023-08-07T10:11:00;17.50;99.90
27306;DHT22;14792;50.886;6.468;2023-08-07T10:14:01;17.50;99.90
27306;DHT22;14792;50.886;6.468;2023-08-07T10:17:03;17.50;99.90
27306;DHT22;14792;50.886;6.468;2023-08-07T10:20:04;17.30;99.90
27306;DHT22;14792;50.886;6.468;2023-08-07T10:23:09;17.00;99.90
27306;DHT22;14792;50.886;6.468;2023-08-07T10:26:10;16.80;99.90
27306;DHT22;14792;50.886;6.468;2023-08-07T10:29:13;16.80;99.90
27306;DHT22;14792;50.886;6.468;2023-08-07T10:32:14;17.10;99.90
27306;DHT22;14792;50.886;6.468;2023-08-07T10:35:30;18.00;99.90
27306;DHT22;14792;50.886;6.468;2023-08-07T10:38:31;18.10;99.90
27306;DHT22;14792;50.886;6.468;2023-08-07T10:41:37;17.90;99.90
27306;DHT22;14792;50.886;6.468;2023-08-07T10:44:44;18.00;99.90
27306;DHT22;14792;50.886;6.468;2023-08-07T10:47:36;18.10;99.90
27306;DHT22;14792;50.886;6.468;2023-08-07T10:50:56;18.50;99.90
27306;DHT22;14792;50.886;6.468;2023-08-07T10:54:00;18.80;99.90
27306;DHT22;14792;50.886;6.468;2023-08-07T10:57:01;18.80;99.90
27306;DHT22;14792;50.886;6.468;2023-08-07T11:00:03;19.00;99.90
27306;DHT22;14792;50.886;6.468;2023-08-07T11:03:08;19.10;99.90
27306;DHT22;14792;50.886;6.468;2023-08-07T11:06:10;18.60;99.90
27306;DHT22;14792;50.886;6.468;2023-08-07T11:09:11;18.50;99.90
27306;DHT22;14792;50.886;6.468;2023-08-07T11:12:13;18.90;99.90
27306;DHT22;14792;50.886;6.468;2023-08-07T11:15:14;19.30;99.90
27306;DHT22;14792;50.886;6.468;2023-08-07T11:18:16;19.60;99.90
27306;DHT22;14792;50.886;6.468;2023-08-07T11:21:17;19.90;99.90
27306;DHT22;14792;50.886;6.468;2023-08-07T11:24:19;19.40;99.90
27306;DHT22;14792;50.886;6.468;2023-08-07T11:27:24;19.20;99.90
27306;DHT22;14792;50.886;6.468;2023-08-07T11:30:25;19.30;99.90
27306;DHT22;14792;50.886;6.468;2023-08-07T11:33:27;19.90;99.90
27306;DHT22;14792;50.886;6.468;2023-08-07T11:36:28;20.00;99.90
27306;DHT22;14792;50.886;6.468;2023-08-07T11:39:30;20.10;99.90
27306;DHT22;14792;50.886;6.468;2023-08-07T11:42:31;20.30;99.90
27306;DHT22;14792;50.886;6.468;2023-08-07T11:45:33;20.40;99.90
27306;DHT22;14792;50.886;6.468;2023-08-07T11:48:36;20.70;99.90
27306;DHT22;14792;50.886;6.468;2023-08-07T11:51:36;20.50;99.90
27306;DHT22;14792;50.886;6.468;2023-08-07T11:54:38;20.00;99.90
27306;DHT22;14792;50.886;6.468;2023-08-07T11:57:39;20.30;99.90
27306;DHT22;14792;50.886;6.468;2023-08-07T12:00:44;20.60;99.90
27306;DHT22;14792;50.886;6.468;2023-08-07T12:04:07;20.40;99.90
27306;DHT22;14792;50.886;6.468;2023-08-07T12:06:56;20.20;99.90
27306;DHT22;14792;50.886;6.468;2023-08-07T12:09:58;20.10;99.90
27306;DHT22;14792;50.886;6.468;2023-08-07T12:12:59;19.70;99.90
27306;DHT22;14792;50.886;6.468;2023-08-07T12:16:01;19.50;99.90
27306;DHT22;14792;50.886;6.468;2023-08-07T12:19:03;19.40;99.90
27306;DHT22;14792;50.886;6.468;2023-08-07T12:22:06;19.40;99.90
27306;DHT22;14792;50.886;6.468;2023-08-07T12:25:06;19.50;99.90
27306;DHT22;14792;50.886;6.468;2023-08-07T12:28:07;19.10;99.90
27306;DHT22;14792;50.886;6.468;2023-08-07T12:31:09;18.90;99.90
27306;DHT22;14792;50.886;6.468;2023-08-07T12:34:10;19.20;99.90
27306;DHT22;14792;50.886;6.468;2023-08-07T12:37:12;19.70;99.90
27306;DHT22;14792;50.886;6.468;2023-08-07T12:40:14;20.00;99.90
27306;DHT22;14792;50.886;6.468;2023-08-07T12:43:15;20.30;99.90
27306;DHT22;14792;50.886;6.468;2023-08-07T12:46:17;20.20;99.90
27306;DHT22;14792;50.886;6.468;2023-08-07T12:49:18;20.10;99.90
27306;DHT22;14792;50.886;6.468;2023-08-07T12:52:20;19.70;99.90
27306;DHT22;14792;50.886;6.468;2023-08-07T12:55:27;20.00;99.90
27306;DHT22;14792;50.886;6.468;2023-08-07T12:58:29;20.00;99.90
27306;DHT22;14792;50.886;6.468;2023-08-07T13:01:30;19.60;99.90
27306;DHT22;14792;50.886;6.468;2023-08-07T13:04:32;19.80;99.90
27306;DHT22;14792;50.886;6.468;2023-08-07T13:07:34;20.20;99.90
27306;DHT22;14792;50.886;6.468;2023-08-07T13:10:35;20.50;99.90
27306;DHT22;14792;50.886;6.468;2023-08-07T13:13:37;20.70;99.90
27306;DHT22;14792;50.886;6.468;2023-08-07T13:16:38;21.10;99.90
27306;DHT22;14792;50.886;6.468;2023-08-07T13:19:40;20.90;99.90
27306;DHT22;14792;50.886;6.468;2023-08-07T13:22:42;20.40;99.90
27306;DHT22;14792;50.886;6.468;2023-08-07T13:25:43;19.60;99.90
27306;DHT22;14792;50.886;6.468;2023-08-07T13:28:45;18.90;99.90
27306;DHT22;14792;50.886;6.468;2023-08-07T13:31:46;18.60;99.90
27306;DHT22;14792;50.886;6.468;2023-08-07T13:34:48;19.00;99.90
27306;DHT22;14792;50.886;6.468;2023-08-07T13:37:49;19.20;99.90
27306;DHT22;14792;50.886;6.468;2023-08-07T13:40:51;19.80;99.90
27306;DHT22;14792;50.886;6.468;2023-08-07T13:43:53;20.30;99.90
27306;DHT22;14792;50.886;6.468;2023-08-07T13:46:54;20.50;99.90
27306;DHT22;14792;50.886;6.468;2023-08-07T13:49:56;20.20;99.90
27306;DHT22;14792;50.886;6.468;2023-08-07T13:52:57;20.50;99.90
27306;DHT22;14792;50.886;6.468;2023-08-07T13:55:59;20.90;99.90
27306;DHT22;14792;50.886;6.468;2023-08-07T13:59:01;20.80;99.90
27306;DHT22;14792;50.886;6.468;2023-08-07T14:02:02;21.10;99.90
27306;DHT22;14792;50.886;6.468;2023-08-07T14:05:04;21.50;99.90
27306;DHT22;14792;50.886;6.468;2023-08-07T14:08:05;21.70;99.90
27306;DHT22;14792;50.886;6.468;2023-08-07T14:11:07;21.20;99.90
27306;DHT22;14792;50.886;6.468;2023-08-07T14:14:09;20.70;99.90
27306;DHT22;14792;50.886;6.468;2023-08-07T14:17:10;20.50;99.90
27306;DHT22;14792;50.886;6.468;2023-08-07T14:20:12;20.30;99.90
27306;DHT22;14792;50.886;6.468;2023-08-07T14:23:28;20.00;99.90
27306;DHT22;14792;50.886;6.468;2023-08-07T14:26:30;20.00;99.90
27306;DHT22;14792;50.886;6.468;2023-08-07T14:29:31;20.20;99.90
27306;DHT22;14792;50.886;6.468;2023-08-07T14:32:33;20.90;99.90
27306;DHT22;14792;50.886;6.468;2023-08-07T14:35:35;21.30;99.90
27306;DHT22;14792;50.886;6.468;2023-08-07T14:38:36;20.70;99.90
27306;DHT22;14792;50.886;6.468;2023-08-07T14:41:38;20.20;99.90
27306;DHT22;14792;50.886;6.468;2023-08-07T14:44:39;20.40;99.90
27306;DHT22;14792;50.886;6.468;2023-08-07T14:51:38;20.30;99.90
27306;DHT22;14792;50.886;6.468;2023-08-07T14:54:39;20.20;99.90
27306;DHT22;14792;50.886;6.468;2023-08-07T14:57:41;20.20;99.90
27306;DHT22;14792;50.886;6.468;2023-08-07T15:00:42;20.10;99.90
27306;DHT22;14792;50.886;6.468;2023-08-07T15:03:44;20.30;99.90
27306;DHT22;14792;50.886;6.468;2023-08-07T15:06:46;20.30;99.90
27306;DHT22;14792;50.886;6.468;2023-08-07T15:09:47;20.60;99.90
27306;DHT22;14792;50.886;6.468;2023-08-07T15:12:49;20.70;99.90
27306;DHT22;14792;50.886;6.468;2023-08-07T15:15:53;20.70;99.90
27306;DHT22;14792;50.886;6.468;2023-08-07T15:18:52;20.90;99.90
27306;DHT22;14792;50.886;6.468;2023-08-07T15:21:54;20.90;99.90
27306;DHT22;14792;50.886;6.468;2023-08-07T15:24:55;20.50;99.90
27306;DHT22;14792;50.886;6.468;2023-08-07T15:27:57;20.20;99.90
27306;DHT22;14792;50.886;6.468;2023-08-07T15:30:58;20.30;99.90
27306;DHT22;14792;50.886;6.468;2023-08-07T15:34:00;20.40;99.90
27306;DHT22;14792;50.886;6.468;2023-08-07T15:37:02;20.40;99.90
27306;DHT22;14792;50.886;6.468;2023-08-07T15:40:03;20.20;99.90
27306;DHT22;14792;50.886;6.468;2023-08-07T15:43:05;20.10;99.90
27306;DHT22;14792;50.886;6.468;2023-08-07T15:46:06;20.00;99.90
27306;DHT22;14792;50.886;6.468;2023-08-07T15:49:09;19.80;99.90
27306;DHT22;14792;50.886;6.468;2023-08-07T15:52:10;20.00;99.90
27306;DHT22;14792;50.886;6.468;2023-08-07T15:55:11;20.10;99.90
27306;DHT22;14792;50.886;6.468;2023-08-07T15:58:13;20.10;99.90
27306;DHT22;14792;50.886;6.468;2023-08-07T16:01:14;19.90;99.90
27306;DHT22;14792;50.886;6.468;2023-08-07T16:04:16;19.60;99.90
27306;DHT22;14792;50.886;6.468;2023-08-07T16:07:17;19.60;99.90
27306;DHT22;14792;50.886;6.468;2023-08-07T16:10:19;19.70;99.90
27306;DHT22;14792;50.886;6.468;2023-08-07T16:13:21;19.70;99.90
27306;DHT22;14792;50.886;6.468;2023-08-07T16:16:22;19.70;99.90
27306;DHT22;14792;50.886;6.468;2023-08-07T16:19:24;19.60;99.90
27306;DHT22;14792;50.886;6.468;2023-08-07T16:22:26;19.60;99.90
27306;DHT22;14792;50.886;6.468;2023-08-07T16:25:27;19.90;99.90
27306;DHT22;14792;50.886;6.468;2023-08-07T16:28:29;19.80;99.90
27306;DHT22;14792;50.886;6.468;2023-08-07T16:31:30;19.90;99.90
27306;DHT22;14792;50.886;6.468;2023-08-07T16:34:32;19.90;99.90
27306;DHT22;14792;50.886;6.468;2023-08-07T16:37:33;19.70;99.90
27306;DHT22;14792;50.886;6.468;2023-08-07T16:40:35;19.60;99.90
27306;DHT22;14792;50.886;6.468;2023-08-07T16:43:37;19.60;99.90
27306;DHT22;14792;50.886;6.468;2023-08-07T16:46:38;19.50;99.90
27306;DHT22;14792;50.886;6.468;2023-08-07T16:49:40;19.40;99.90
27306;DHT22;14792;50.886;6.468;2023-08-07T16:52:41;19.40;99.90
27306;DHT22;14792;50.886;6.468;2023-08-07T16:55:43;19.70;99.90
27306;DHT22;14792;50.886;6.468;2023-08-07T16:58:45;19.50;99.90
27306;DHT22;14792;50.886;6.468;2023-08-07T17:01:46;19.40;99.90
27306;DHT22;14792;50.886;6.468;2023-08-07T17:04:48;19.20;99.90
27306;DHT22;14792;50.886;6.468;2023-08-07T17:07:49;19.30;99.90
27306;DHT22;14792;50.886;6.468;2023-08-07T17:10:51;19.20;99.90
27306;DHT22;14792;50.886;6.468;2023-08-07T17:13:52;19.00;99.90
27306;DHT22;14792;50.886;6.468;2023-08-07T17:16:54;18.90;99.90
27306;DHT22;14792;50.886;6.468;2023-08-07T17:19:56;18.80;99.90
27306;DHT22;14792;50.886;6.468;2023-08-07T17:22:57;18.70;99.90
27306;DHT22;14792;50.886;6.468;2023-08-07T17:25:59;18.60;99.90
27306;DHT22;14792;50.886;6.468;2023-08-07T17:29:00;18.50;99.90
27306;DHT22;14792;50.886;6.468;2023-08-07T17:32:04;18.50;99.90
27306;DHT22;14792;50.886;6.468;2023-08-07T17:35:05;18.40;99.90
27306;DHT22;14792;50.886;6.468;2023-08-07T17:38:07;18.30;99.90
27306;DHT22;14792;50.886;6.468;2023-08-07T17:41:08;18.30;99.90
27306;DHT22;14792;50.886;6.468;2023-08-07T17:44:10;18.20;99.90
27306;DHT22;14792;50.886;6.468;2023-08-07T17:47:12;18.20;99.90
27306;DHT22;14792;50.886;6.468;2023-08-07T17:50:13;18.10;99.90
27306;DHT22;14792;50.886;6.468;2023-08-07T17:53:15;18.10;99.90
27306;DHT22;14792;50.886;6.468;2023-08-07T17:56:16;18.10;99.90
27306;DHT22;14792;50.886;6.468;2023-08-07T17:59:18;18.10;99.90
27306;DHT22;14792;50.886;6.468;2023-08-07T18:02:20;18.20;99.90
27306;DHT22;14792;50.886;6.468;2023-08-07T18:05:21;18.30;99.90
27306;DHT22;14792;50.886;6.468;2023-08-07T18:08:23;18.20;99.90
27306;DHT22;14792;50.886;6.468;2023-08-07T18:11:24;18.10;99.90
27306;DHT22;14792;50.886;6.468;2023-08-07T18:14:26;18.10;99.90
27306;DHT22;14792;50.886;6.468;2023-08-07T18:17:27;18.00;99.90
27306;DHT22;14792;50.886;6.468;2023-08-07T18:20:29;17.90;99.90
27306;DHT22;14792;50.886;6.468;2023-08-07T18:23:31;17.80;99.90
27306;DHT22;14792;50.886;6.468;2023-08-07T18:26:32;17.70;99.90
27306;DHT22;14792;50.886;6.468;2023-08-07T18:29:34;17.70;99.90
27306;DHT22;14792;50.886;6.468;2023-08-07T18:32:35;17.60;99.90
27306;DHT22;14792;50.886;6.468;2023-08-07T18:35:37;17.50;99.90
27306;DHT22;14792;50.886;6.468;2023-08-07T18:38:39;17.50;99.90
27306;DHT22;14792;50.886;6.468;2023-08-07T18:41:40;17.50;99.90
27306;DHT22;14792;50.886;6.468;2023-08-07T18:44:42;17.40;99.90
27306;DHT22;14792;50.886;6.468;2023-08-07T18:47:43;17.40;99.90
27306;DHT22;14792;50.886;6.468;2023-08-07T18:50:45;17.40;99.90
27306;DHT22;14792;50.886;6.468;2023-08-07T18:53:47;17.30;99.90
27306;DHT22;14792;50.886;6.468;2023-08-07T18:56:48;17.30;99.90
27306;DHT22;14792;50.886;6.468;2023-08-07T18:59:50;17.20;99.90
27306;DHT22;14792;50.886;6.468;2023-08-07T19:02:51;17.10;99.90
27306;DHT22;14792;50.886;6.468;2023-08-07T19:05:53;17.00;99.90
27306;DHT22;14792;50.886;6.468;2023-08-07T19:08:54;16.90;99.90
27306;DHT22;14792;50.886;6.468;2023-08-07T19:11:56;16.90;99.90
27306;DHT22;14792;50.886;6.468;2023-08-07T19:14:58;16.80;99.90
27306;DHT22;14792;50.886;6.468;2023-08-07T19:17:59;16.70;99.90
27306;DHT22;14792;50.886;6.468;2023-08-07T19:21:01;16.60;99.90
27306;DHT22;14792;50.886;6.468;2023-08-07T19:24:02;16.50;99.90
27306;DHT22;14792;50.886;6.468;2023-08-07T19:27:04;16.40;99.90
27306;DHT22;14792;50.886;6.468;2023-08-07T19:30:07;16.30;99.90
27306;DHT22;14792;50.886;6.468;2023-08-07T19:33:08;16.30;99.90
27306;DHT22;14792;50.886;6.468;2023-08-07T19:36:10;16.20;99.90
27306;DHT22;14792;50.886;6.468;2023-08-07T19:39:11;16.10;99.90
27306;DHT22;14792;50.886;6.468;2023-08-07T19:42:13;16.00;99.90
27306;DHT22;14792;50.886;6.468;2023-08-07T19:45:15;15.90;99.90
27306;DHT22;14792;50.886;6.468;2023-08-07T19:48:16;15.90;99.90
27306;DHT22;14792;50.886;6.468;2023-08-07T19:51:18;15.80;99.90
27306;DHT22;14792;50.886;6.468;2023-08-07T19:54:19;15.70;99.90